createdAt,value
2018-12-15T00:01:50.963Z,101901.05
2018-12-15T00:04:18.484Z,101896.06
2018-12-15T00:06:45.953Z,101893.84
2018-12-15T00:09:13.408Z,101895.98
2018-12-15T00:11:40.830Z,101904.57
2018-12-15T00:14:08.262Z,101903.65
2018-12-15T00:16:35.748Z,101900.20
2018-12-15T00:19:03.243Z,101910.53
2018-12-15T00:21:30.674Z,101910.09
2018-12-15T00:23:58.143Z,101907.09
2018-12-15T00:26:25.566Z,101907.92
2018-12-15T00:28:53.015Z,101907.87
2018-12-15T00:31:20.874Z,101908.20
2018-12-15T00:33:48.368Z,101910.25
2018-12-15T00:36:15.939Z,101914.62
2018-12-15T00:38:43.367Z,101918.98
2018-12-15T00:41:10.869Z,101916.00
2018-12-15T00:43:38.411Z,101912.10
2018-12-15T00:46:05.845Z,101924.18
2018-12-15T00:48:33.275Z,101926.41
2018-12-15T00:51:00.792Z,101928.68
2018-12-15T00:53:28.332Z,101930.48
2018-12-15T00:55:55.800Z,101937.53
2018-12-15T00:58:27.438Z,101943.62
2018-12-15T01:00:54.855Z,101947.61
2018-12-15T01:03:22.299Z,101949.75
2018-12-15T01:05:49.708Z,101944.09
2018-12-15T01:08:17.125Z,101940.19
2018-12-15T01:10:44.589Z,101951.05
2018-12-15T01:13:12.108Z,101952.34
2018-12-15T01:15:44.536Z,101951.38
2018-12-15T01:18:13.044Z,101955.73
2018-12-15T01:20:40.607Z,101956.12
2018-12-15T01:23:08.073Z,101953.44
2018-12-15T01:25:35.617Z,101959.42
2018-12-15T01:28:03.189Z,101968.06
2018-12-15T01:30:30.604Z,101969.45
2018-12-15T01:32:58.204Z,101962.63
2018-12-15T01:35:25.627Z,101958.72
2018-12-15T01:37:53.053Z,101963.84
2018-12-15T01:40:20.664Z,101964.25
2018-12-15T01:42:48.078Z,101968.15
2018-12-15T01:45:15.501Z,101966.90
2018-12-15T01:47:42.938Z,101972.56
2018-12-15T01:50:10.616Z,101970.80
2018-12-15T01:52:38.064Z,101976.70
2018-12-15T01:55:05.616Z,101975.36
2018-12-15T01:57:33.067Z,101976.66
2018-12-15T02:00:00.548Z,101984.33
2018-12-15T02:02:27.989Z,101981.77
2018-12-15T02:04:55.409Z,101980.42
2018-12-15T02:07:22.821Z,101985.08
2018-12-15T02:09:50.305Z,101986.00
2018-12-15T02:12:17.735Z,101987.77
2018-12-15T02:14:45.180Z,101990.88
2018-12-15T02:17:12.625Z,101990.04
2018-12-15T02:19:40.081Z,101986.98
2018-12-15T02:22:07.560Z,101986.98
2018-12-15T02:24:35.114Z,101984.38
2018-12-15T02:27:02.657Z,101981.40
2018-12-15T02:29:30.132Z,101984.05
2018-12-15T02:31:57.576Z,101978.84
2018-12-15T02:34:25.011Z,101980.61
2018-12-15T02:36:52.439Z,101979.77
2018-12-15T02:39:19.972Z,101979.39
2018-12-15T02:41:47.619Z,101976.46
2018-12-15T02:44:15.271Z,101980.95
2018-12-15T02:46:42.745Z,101984.86
2018-12-15T02:49:10.286Z,101979.27
2018-12-15T02:51:37.722Z,101972.77
2018-12-15T02:54:05.320Z,101973.61
2018-12-15T02:56:32.763Z,101976.92
2018-12-15T02:59:00.235Z,101976.41
2018-12-15T03:01:27.678Z,101974.23
2018-12-15T03:03:55.089Z,101971.72
2018-12-15T03:06:22.701Z,101968.61
2018-12-15T03:08:50.472Z,101969.45
2018-12-15T03:11:17.919Z,101972.09
2018-12-15T03:13:45.365Z,101968.66
2018-12-15T03:16:12.923Z,101963.54
2018-12-15T03:18:40.380Z,101967.11
2018-12-15T03:21:07.845Z,101962.29
2018-12-15T03:23:35.608Z,101969.71
2018-12-15T03:26:03.173Z,101960.94
2018-12-15T03:28:30.600Z,101961.78
2018-12-15T03:30:58.082Z,101958.34
2018-12-15T03:33:25.543Z,101953.00
2018-12-15T03:35:52.957Z,101960.27
2018-12-15T03:38:20.440Z,101964.95
2018-12-15T03:40:47.864Z,101961.89
2018-12-15T03:43:15.383Z,101962.81
2018-12-15T03:45:42.813Z,101950.66
2018-12-15T03:48:10.288Z,101954.69
2018-12-15T03:50:37.738Z,101953.06
2018-12-15T03:53:05.191Z,101953.27
2018-12-15T03:55:32.657Z,101952.86
2018-12-15T03:58:00.166Z,101945.47
2018-12-15T04:00:27.636Z,101941.81
2018-12-15T04:02:55.118Z,101938.24
2018-12-15T04:05:22.578Z,101938.24
2018-12-15T04:07:50.022Z,101937.45
2018-12-15T04:10:17.498Z,101936.23
2018-12-15T04:12:44.946Z,101937.97
2018-12-15T04:15:12.359Z,101928.03
2018-12-15T04:17:39.987Z,101927.97
2018-12-15T04:20:07.521Z,101927.19
2018-12-15T04:22:35.089Z,101931.55
2018-12-15T04:25:02.497Z,101937.26
2018-12-15T04:27:29.992Z,101933.82
2018-12-15T04:29:57.445Z,101936.38
2018-12-15T04:32:24.920Z,101933.69
2018-12-15T04:34:52.475Z,101928.11
2018-12-15T04:37:19.940Z,101931.47
2018-12-15T04:39:47.367Z,101925.42
2018-12-15T04:42:14.946Z,101927.56
2018-12-15T04:44:42.353Z,101926.81
2018-12-15T04:47:09.930Z,101924.26
2018-12-15T04:49:37.433Z,101921.98
2018-12-15T04:52:04.888Z,101923.75
2018-12-15T04:54:32.333Z,101928.57
2018-12-15T04:56:59.789Z,101930.38
2018-12-15T04:59:27.241Z,101928.62
2018-12-15T05:01:54.679Z,101928.24
2018-12-15T05:04:22.127Z,101924.26
2018-12-15T05:06:49.567Z,101929.92
2018-12-15T05:09:17.084Z,101928.57
2018-12-15T05:11:44.539Z,101922.95
2018-12-15T05:14:11.961Z,101923.38
2018-12-15T05:16:39.468Z,101921.61
2018-12-15T05:19:07.020Z,101921.61
2018-12-15T05:21:34.461Z,101931.09
2018-12-15T05:24:01.928Z,101936.38
2018-12-15T05:26:29.356Z,101927.78
2018-12-15T05:28:56.770Z,101925.64
2018-12-15T05:31:24.194Z,101926.48
2018-12-15T05:33:51.623Z,101933.77
2018-12-15T05:36:19.109Z,101927.32
2018-12-15T05:38:46.572Z,101932.52
2018-12-15T05:41:13.995Z,101933.44
2018-12-15T05:43:41.475Z,101933.44
2018-12-15T05:46:08.900Z,101943.38
2018-12-15T05:48:36.513Z,101933.95
2018-12-15T05:51:03.952Z,101931.30
2018-12-15T05:53:31.368Z,101927.78
2018-12-15T05:55:58.819Z,101939.02
2018-12-15T05:58:26.230Z,101940.19
2018-12-15T06:00:53.680Z,101936.23
2018-12-15T06:03:21.108Z,101928.48
2018-12-15T06:05:48.600Z,101937.08
2018-12-15T06:08:16.039Z,101936.48
2018-12-15T06:10:43.561Z,101934.34
2018-12-15T06:13:11.075Z,101940.00
2018-12-15T06:15:38.506Z,101939.67
2018-12-15T06:18:05.972Z,101936.16
2018-12-15T06:20:33.441Z,101937.53
2018-12-15T06:23:00.885Z,101932.47
2018-12-15T06:25:28.338Z,101932.34
2018-12-15T06:27:55.812Z,101931.47
2018-12-15T06:30:23.268Z,101929.33
2018-12-15T06:32:50.726Z,101926.72
2018-12-15T06:35:18.179Z,101928.86
2018-12-15T06:37:45.616Z,101927.97
2018-12-15T06:40:13.041Z,101934.02
2018-12-15T06:42:40.461Z,101937.08
2018-12-15T06:45:07.912Z,101931.41
2018-12-15T06:47:35.348Z,101934.39
2018-12-15T06:50:03.009Z,101938.30
2018-12-15T06:52:30.468Z,101936.99
2018-12-15T06:54:58.034Z,101932.25
2018-12-15T06:57:25.500Z,101932.77
2018-12-15T06:59:52.944Z,101936.23
2018-12-15T07:02:20.527Z,101930.91
2018-12-15T07:04:47.968Z,101933.34
2018-12-15T07:07:15.392Z,101937.19
2018-12-15T07:09:42.904Z,101937.19
2018-12-15T07:12:10.339Z,101939.00
2018-12-15T07:14:37.809Z,101934.80
2018-12-15T07:17:05.260Z,101929.73
2018-12-15T07:19:32.716Z,101922.45
2018-12-15T07:22:00.151Z,101928.95
2018-12-15T07:24:27.593Z,101935.77
2018-12-15T07:26:55.031Z,101936.28
2018-12-15T07:29:22.454Z,101940.56
2018-12-15T07:31:49.903Z,101938.05
2018-12-15T07:34:17.361Z,101937.26
2018-12-15T07:36:44.897Z,101945.02
2018-12-15T07:39:12.336Z,101945.34
2018-12-15T07:41:39.927Z,101956.03
2018-12-15T07:44:07.389Z,101947.34
2018-12-15T07:46:34.851Z,101944.88
2018-12-15T07:49:02.290Z,101957.42
2018-12-15T07:51:29.710Z,101955.61
2018-12-15T07:53:57.145Z,101955.20
2018-12-15T07:56:26.268Z,101940.84
2018-12-15T07:58:53.706Z,101944.28
2018-12-15T08:01:21.232Z,101942.01
2018-12-15T08:03:48.693Z,101948.75
2018-12-15T08:06:16.232Z,101948.75
2018-12-15T08:08:43.696Z,101950.89
2018-12-15T08:14:26.244Z,101958.10
2018-12-15T08:16:53.784Z,101957.27
2018-12-15T08:19:21.246Z,101963.30
2018-12-15T08:21:48.710Z,101965.98
2018-12-15T08:24:16.233Z,101962.14
2018-12-15T08:26:43.844Z,101969.31
2018-12-15T08:29:11.283Z,101971.38
2018-12-15T08:31:38.719Z,101970.41
2018-12-15T08:34:06.207Z,101964.14
2018-12-15T08:36:33.625Z,101960.56
2018-12-15T08:39:01.045Z,101966.98
2018-12-15T08:41:28.474Z,101967.12
2018-12-15T08:43:55.918Z,101963.22
2018-12-15T08:46:23.353Z,101968.38
2018-12-15T08:48:50.922Z,101969.20
2018-12-15T08:51:18.429Z,101976.04
2018-12-15T08:53:45.864Z,101981.57
2018-12-15T08:56:13.282Z,101970.56
2018-12-15T08:58:40.794Z,101973.88
2018-12-15T09:01:08.225Z,101971.56
2018-12-15T09:03:35.646Z,101971.19
2018-12-15T09:06:03.143Z,101978.48
2018-12-15T09:08:30.692Z,101979.31
2018-12-15T09:10:58.145Z,101980.95
2018-12-15T09:13:25.594Z,101977.33
2018-12-15T09:15:53.020Z,101976.03
2018-12-15T09:18:20.441Z,101977.74
2018-12-15T09:20:47.976Z,101975.14
2018-12-15T09:23:15.429Z,101975.06
2018-12-15T09:25:42.891Z,101983.70
2018-12-15T09:28:10.330Z,101980.67
2018-12-15T09:30:37.745Z,101983.65
2018-12-15T09:33:05.169Z,101987.83
2018-12-15T09:35:32.606Z,101981.45
2018-12-15T09:38:00.044Z,101991.73
2018-12-15T09:40:27.500Z,101992.81
2018-12-15T09:42:54.925Z,101991.73
2018-12-15T09:45:22.399Z,101994.66
2018-12-15T09:47:49.818Z,101990.75
2018-12-15T09:50:17.311Z,101995.95
2018-12-15T09:52:44.805Z,101994.55
2018-12-15T09:55:12.294Z,101989.72
2018-12-15T09:57:39.731Z,101986.20
2018-12-15T10:00:07.468Z,101988.75
2018-12-15T10:02:34.937Z,101986.77
2018-12-15T10:05:02.507Z,101981.51
2018-12-15T10:07:30.042Z,101980.50
2018-12-15T10:09:57.481Z,101972.86
2018-12-15T10:12:24.938Z,101973.00
2018-12-15T10:14:52.361Z,101976.82
2018-12-15T10:17:19.786Z,101971.34
2018-12-15T10:19:47.245Z,101961.87
2018-12-15T10:22:14.666Z,101962.19
2018-12-15T10:24:42.119Z,101963.63
2018-12-15T10:27:09.535Z,101960.55
2018-12-15T10:29:42.580Z,101954.48
2018-12-15T10:32:15.642Z,101946.06
2018-12-15T10:34:43.160Z,101945.79
2018-12-15T10:37:10.640Z,101943.59
2018-12-15T10:39:38.137Z,101937.52
2018-12-15T10:42:05.617Z,101932.77
2018-12-15T10:44:33.088Z,101930.87
2018-12-15T10:47:00.519Z,101925.98
2018-12-15T10:49:30.654Z,101924.68
2018-12-15T10:51:57.515Z,101922.45
2018-12-15T10:54:24.958Z,101919.01
2018-12-15T10:56:52.408Z,101914.09
2018-12-15T10:59:19.851Z,101917.39
2018-12-15T11:01:47.320Z,101912.13
2018-12-15T11:04:14.804Z,101908.45
2018-12-15T11:06:42.232Z,101900.01
2018-12-15T11:09:09.694Z,101895.27
2018-12-15T11:11:37.171Z,101896.39
2018-12-15T11:14:04.643Z,101902.38
2018-12-15T11:16:32.091Z,101900.98
2018-12-15T11:18:59.501Z,101901.48
2018-12-15T11:21:26.992Z,101896.57
2018-12-15T11:23:54.423Z,101896.05
2018-12-15T11:26:21.908Z,101897.20
2018-12-15T11:28:49.363Z,101897.30
2018-12-15T11:31:16.801Z,101892.00
2018-12-15T11:33:44.280Z,101889.11
2018-12-15T11:36:11.701Z,101884.65
2018-12-15T11:38:39.195Z,101878.69
2018-12-15T11:41:06.642Z,101872.70
2018-12-15T11:43:34.111Z,101865.50
2018-12-15T11:46:01.549Z,101857.52
2018-12-15T11:48:29.028Z,101858.25
2018-12-15T11:50:56.469Z,101859.31
2018-12-15T11:53:23.915Z,101852.44
2018-12-15T11:55:51.398Z,101857.92
2018-12-15T11:58:18.821Z,101852.98
2018-12-15T12:00:46.246Z,101846.91
2018-12-15T12:03:13.672Z,101844.69
2018-12-15T12:05:41.108Z,101841.45
2018-12-15T12:08:08.667Z,101835.80
2018-12-15T12:10:36.103Z,101829.30
2018-12-15T12:13:03.532Z,101820.88
2018-12-15T12:15:31.085Z,101823.66
2018-12-15T12:17:58.583Z,101809.00
2018-12-15T12:20:26.063Z,101808.48
2018-12-15T12:22:53.553Z,101808.02
2018-12-15T12:25:20.984Z,101804.41
2018-12-15T12:27:48.415Z,101799.52
2018-12-15T12:30:15.986Z,101807.79
2018-12-15T12:32:43.431Z,101797.16
2018-12-15T12:35:11.019Z,101792.39
2018-12-15T12:37:38.495Z,101791.47
2018-12-15T12:40:06.001Z,101786.95
2018-12-15T12:42:33.485Z,101784.66
2018-12-15T12:45:00.939Z,101779.62
2018-12-15T12:47:28.656Z,101777.22
2018-12-15T12:49:56.933Z,101772.63
2018-12-15T12:52:24.727Z,101763.52
2018-12-15T12:54:52.207Z,101766.66
2018-12-15T12:57:19.728Z,101768.87
2018-12-15T12:59:47.216Z,101772.57
2018-12-15T13:02:14.678Z,101768.52
2018-12-15T13:04:42.120Z,101770.56
2018-12-15T13:07:09.538Z,101765.98
2018-12-15T13:09:37.013Z,101764.12
2018-12-15T13:12:04.488Z,101769.17
2018-12-15T13:14:31.941Z,101766.30
2018-12-15T13:16:59.419Z,101762.45
2018-12-15T13:19:26.908Z,101762.14
2018-12-15T13:21:54.437Z,101763.84
2018-12-15T13:24:22.338Z,101758.55
2018-12-15T13:26:49.855Z,101760.00
2018-12-15T13:29:17.324Z,101758.63
2018-12-15T13:31:44.763Z,101758.09
2018-12-15T13:34:12.188Z,101752.83
2018-12-15T13:36:39.663Z,101750.59
2018-12-15T13:39:07.241Z,101753.20
2018-12-15T13:41:34.813Z,101748.61
2018-12-15T13:44:02.241Z,101745.91
2018-12-15T13:46:29.873Z,101735.34
2018-12-15T13:48:57.378Z,101735.04
2018-12-15T13:51:24.823Z,101738.11
2018-12-15T13:53:52.307Z,101732.90
2018-12-15T13:56:19.743Z,101730.30
2018-12-15T13:58:47.409Z,101728.47
2018-12-15T14:01:14.853Z,101730.45
2018-12-15T14:03:42.284Z,101715.39
2018-12-15T14:06:09.729Z,101712.10
2018-12-15T14:08:37.160Z,101709.70
2018-12-15T14:11:04.708Z,101719.38
2018-12-15T14:13:32.157Z,101708.50
2018-12-15T14:15:59.567Z,101710.73
2018-12-15T14:18:27.048Z,101708.58
2018-12-15T14:20:54.479Z,101707.80
2018-12-15T14:23:21.978Z,101710.03
2018-12-15T14:25:49.644Z,101707.81
2018-12-15T14:28:17.112Z,101702.30
2018-12-15T14:30:44.564Z,101695.95
2018-12-15T14:33:12.020Z,101693.56
2018-12-15T14:35:39.473Z,101688.22
2018-12-15T14:38:06.883Z,101680.19
2018-12-15T14:40:34.327Z,101679.71
2018-12-15T14:43:01.845Z,101676.42
2018-12-15T14:45:29.385Z,101676.42
2018-12-15T14:47:56.865Z,101671.07
2018-12-15T14:50:24.337Z,101674.50
2018-12-15T14:52:51.773Z,101665.34
2018-12-15T14:55:19.227Z,101657.91
2018-12-15T14:57:46.675Z,101650.89
2018-12-15T15:00:14.399Z,101657.86
2018-12-15T15:02:41.911Z,101653.55
2018-12-15T15:05:09.471Z,101649.96
2018-12-15T15:07:36.913Z,101640.17
2018-12-15T15:10:05.628Z,101628.16
2018-12-15T15:12:33.057Z,101627.78
2018-12-15T15:15:00.506Z,101622.73
2018-12-15T15:17:27.932Z,101610.95
2018-12-15T15:19:55.667Z,101615.09
2018-12-15T15:22:23.097Z,101612.78
2018-12-15T15:24:50.527Z,101601.48
2018-12-15T15:27:17.975Z,101601.16
2018-12-15T15:29:45.408Z,101598.41
2018-12-15T15:32:12.918Z,101593.15
2018-12-15T15:34:40.444Z,101594.83
2018-12-15T15:37:07.954Z,101585.57
2018-12-15T15:39:35.416Z,101586.88
2018-12-15T15:42:02.865Z,101587.93
2018-12-15T15:44:30.304Z,101592.75
2018-12-15T15:46:57.762Z,101582.97
2018-12-15T15:49:25.232Z,101577.40
2018-12-15T15:51:52.687Z,101569.45
2018-12-15T15:54:20.116Z,101568.52
2018-12-15T15:56:47.590Z,101566.66
2018-12-15T15:59:15.016Z,101559.17
2018-12-15T16:01:42.501Z,101559.17
2018-12-15T16:04:09.917Z,101554.90
2018-12-15T16:06:37.358Z,101557.56
2018-12-15T16:09:07.463Z,101556.20
2018-12-15T16:11:34.903Z,101547.34
2018-12-15T16:14:02.342Z,101552.91
2018-12-15T16:16:32.584Z,101546.97
2018-12-15T16:19:00.129Z,101542.60
2018-12-15T16:21:27.697Z,101538.70
2018-12-15T16:23:55.143Z,101533.12
2018-12-15T16:26:22.560Z,101531.73
2018-12-15T16:28:50.102Z,101526.84
2018-12-15T16:31:17.582Z,101519.60
2018-12-15T16:33:45.007Z,101519.60
2018-12-15T16:36:12.462Z,101517.00
2018-12-15T16:38:39.895Z,101509.20
2018-12-15T16:41:07.331Z,101503.60
2018-12-15T16:43:34.805Z,101498.87
2018-12-15T16:46:02.244Z,101489.09
2018-12-15T16:48:29.692Z,101486.18
2018-12-15T16:50:57.187Z,101475.80
2018-12-15T16:53:24.765Z,101475.14
2018-12-15T16:55:52.169Z,101475.81
2018-12-15T16:58:19.607Z,101481.01
2018-12-15T17:00:47.116Z,101473.21
2018-12-15T17:03:14.687Z,101470.70
2018-12-15T17:05:42.246Z,101465.88
2018-12-15T17:08:09.661Z,101449.23
2018-12-15T17:10:37.103Z,101451.66
2018-12-15T17:13:04.666Z,101447.31
2018-12-15T17:15:32.088Z,101440.97
2018-12-15T17:17:59.528Z,101444.09
2018-12-15T17:20:26.971Z,101445.25
2018-12-15T17:22:54.432Z,101444.33
2018-12-15T17:25:21.857Z,101441.36
2018-12-15T17:27:49.344Z,101442.02
2018-12-15T17:30:16.802Z,101434.47
2018-12-15T17:32:44.274Z,101433.78
2018-12-15T17:35:11.775Z,101438.13
2018-12-15T17:37:39.249Z,101429.63
2018-12-15T17:40:07.681Z,101428.24
2018-12-15T17:42:35.101Z,101414.34
2018-12-15T17:45:02.672Z,101409.25
2018-12-15T17:47:30.128Z,101404.66
2018-12-15T17:49:57.551Z,101410.37
2018-12-15T17:52:25.319Z,101408.70
2018-12-15T17:54:52.920Z,101405.47
2018-12-15T17:57:20.358Z,101394.34
2018-12-15T17:59:47.809Z,101384.62
2018-12-15T18:02:15.248Z,101378.97
2018-12-15T18:04:42.657Z,101368.69
2018-12-15T18:07:10.110Z,101374.02
2018-12-15T18:09:37.552Z,101372.34
2018-12-15T18:12:05.011Z,101371.10
2018-12-15T18:14:32.479Z,101368.19
2018-12-15T18:16:59.908Z,101364.39
2018-12-15T18:19:27.669Z,101363.14
2018-12-15T18:21:55.112Z,101352.95
2018-12-15T18:24:22.618Z,101357.41
2018-12-15T18:26:50.056Z,101351.09
2018-12-15T18:29:17.508Z,101347.35
2018-12-15T18:31:44.965Z,101339.31
2018-12-15T18:34:12.435Z,101333.84
2018-12-15T18:36:39.863Z,101329.17
2018-12-15T18:39:07.662Z,101329.69
2018-12-15T18:41:35.139Z,101320.84
2018-12-15T18:44:02.639Z,101318.70
2018-12-15T18:46:30.070Z,101319.62
2018-12-15T18:48:57.585Z,101311.59
2018-12-15T18:51:25.324Z,101306.03
2018-12-15T18:53:52.876Z,101303.20
2018-12-15T18:56:20.356Z,101303.43
2018-12-15T18:58:47.820Z,101302.19
2018-12-15T19:01:15.297Z,101299.73
2018-12-15T19:03:42.736Z,101295.02
2018-12-15T19:06:10.293Z,101290.43
2018-12-15T19:08:37.733Z,101287.14
2018-12-15T19:11:05.213Z,101283.77
2018-12-15T19:13:32.656Z,101271.09
2018-12-15T19:16:00.101Z,101263.41
2018-12-15T19:18:27.571Z,101259.66
2018-12-15T19:20:54.980Z,101247.83
2018-12-15T19:23:22.454Z,101232.19
2018-12-15T19:25:49.936Z,101230.84
2018-12-15T19:28:17.364Z,101232.64
2018-12-15T19:30:44.867Z,101226.26
2018-12-15T19:33:12.289Z,101217.89
2018-12-15T19:35:39.718Z,101223.13
2018-12-15T19:38:07.144Z,101210.72
2018-12-15T19:40:34.705Z,101206.97
2018-12-15T19:43:02.201Z,101203.14
2018-12-15T19:45:29.705Z,101202.72
2018-12-15T19:47:57.163Z,101209.02
2018-12-15T19:50:24.623Z,101206.89
2018-12-15T19:52:52.067Z,101205.30
2018-12-15T19:55:19.540Z,101205.12
2018-12-15T19:57:47.002Z,101203.69
2018-12-15T20:00:14.472Z,101194.95
2018-12-15T20:02:41.879Z,101194.08
2018-12-15T20:05:09.360Z,101193.66
2018-12-15T20:07:36.791Z,101188.98
2018-12-15T20:10:05.134Z,101178.69
2018-12-15T20:12:32.605Z,101181.68
2018-12-15T20:15:00.114Z,101174.42
2018-12-15T20:17:28.239Z,101169.39
2018-12-15T20:19:55.743Z,101168.92
2018-12-15T20:22:23.181Z,101166.51
2018-12-15T20:24:50.661Z,101160.88
2018-12-15T20:27:18.095Z,101159.17
2018-12-15T20:29:45.528Z,101160.88
2018-12-15T20:32:12.933Z,101147.00
2018-12-15T20:34:40.377Z,101151.81
2018-12-15T20:37:07.931Z,101151.03
2018-12-15T20:39:35.394Z,101144.70
2018-12-15T20:42:02.870Z,101139.00
2018-12-15T20:44:30.609Z,101133.50
2018-12-15T20:46:58.083Z,101137.07
2018-12-15T20:49:25.505Z,101136.00
2018-12-15T20:51:52.965Z,101127.92
2018-12-15T20:54:20.544Z,101121.99
2018-12-15T20:56:48.009Z,101115.44
2018-12-15T20:59:15.467Z,101110.72
2018-12-15T21:01:42.883Z,101102.03
2018-12-15T21:04:10.383Z,101094.73
2018-12-15T21:06:37.819Z,101095.33
2018-12-15T21:09:06.535Z,101088.03
2018-12-15T21:11:33.949Z,101086.59
2018-12-15T21:14:01.536Z,101078.97
2018-12-15T21:16:28.996Z,101079.86
2018-12-15T21:18:56.452Z,101074.39
2018-12-15T21:21:23.886Z,101060.53
2018-12-15T21:23:51.405Z,101060.16
2018-12-15T21:26:18.844Z,101045.92
2018-12-15T21:28:46.375Z,101043.48
2018-12-15T21:31:13.880Z,101045.29
2018-12-15T21:33:41.408Z,101043.53
2018-12-15T21:36:08.955Z,101038.41
2018-12-15T21:38:36.429Z,101035.82
2018-12-15T21:41:03.915Z,101028.47
2018-12-15T21:43:31.431Z,101026.57
2018-12-15T21:45:58.880Z,101021.91
2018-12-15T21:48:26.449Z,101020.30
2018-12-15T21:50:53.911Z,101013.00
2018-12-15T21:53:21.333Z,101012.53
2018-12-15T21:55:48.831Z,101007.36
2018-12-15T21:58:16.259Z,100997.84
2018-12-15T22:00:43.726Z,100998.16
2018-12-15T22:03:11.249Z,100989.80
2018-12-15T22:05:38.705Z,100979.36
2018-12-15T22:08:06.137Z,100980.14
2018-12-15T22:10:33.650Z,100977.09
2018-12-15T22:13:01.123Z,100971.40
2018-12-15T22:15:28.589Z,100966.28
2018-12-15T22:17:56.029Z,100956.77
2018-12-15T22:20:23.801Z,100954.12
2018-12-15T22:22:51.261Z,100953.05
2018-12-15T22:25:18.781Z,100945.20
2018-12-15T22:27:46.205Z,100936.14
2018-12-15T22:30:13.798Z,100928.93
2018-12-15T22:32:41.273Z,100920.39
2018-12-15T22:35:08.836Z,100915.22
2018-12-15T22:37:36.268Z,100912.26
2018-12-15T22:40:04.594Z,100894.20
2018-12-15T22:42:32.025Z,100890.27
2018-12-15T22:44:59.463Z,100895.13
2018-12-15T22:47:26.946Z,100895.64
2018-12-15T22:49:54.398Z,100891.70
2018-12-15T22:52:21.982Z,100885.70
2018-12-15T22:54:49.394Z,100876.85
2018-12-15T22:57:16.813Z,100872.53
2018-12-15T22:59:44.274Z,100862.94
2018-12-15T23:02:11.785Z,100859.89
2018-12-15T23:04:39.235Z,100853.44
2018-12-15T23:07:06.931Z,100831.29
2018-12-15T23:09:34.476Z,100829.46
2018-12-15T23:12:01.999Z,100823.61
2018-12-15T23:14:29.497Z,100823.14
2018-12-15T23:16:56.966Z,100824.52
2018-12-15T23:19:24.420Z,100825.36
2018-12-15T23:21:51.973Z,100815.45
2018-12-15T23:24:19.390Z,100811.83
2018-12-15T23:26:46.996Z,100804.74
2018-12-15T23:29:14.431Z,100800.19
2018-12-15T23:31:41.893Z,100806.27
2018-12-15T23:34:09.321Z,100802.44
2018-12-15T23:36:36.809Z,100799.70
2018-12-15T23:39:06.081Z,100808.23
2018-12-15T23:41:33.575Z,100813.84
2018-12-15T23:44:01.269Z,100805.71
2018-12-15T23:46:28.701Z,100800.81
2018-12-15T23:48:56.113Z,100797.33
2018-12-15T23:51:23.544Z,100793.81
2018-12-15T23:53:51.043Z,100796.00
2018-12-15T23:56:18.468Z,100796.83
2018-12-15T23:58:45.915Z,100791.89
